Time;durP1;ratioP1;P1;durP2;ratioP2;P2;SDS_P1;SDS_P2;PMS_P1;PMS_P2;Temp;Humidity;BMP_temperature;BMP_pressure;BME280_temperature;BME280_humidity;BME280_pressure;Samples;Min_cycle;Max_cycle;Signal;HPM_P1;HPM_P2
2021/03/26 00:00:43;;;;;;;33.92;20.77;;;9.40;1.00;;;;;;5036167;28;20206;-62
2021/03/26 00:03:12;;;;;;;36.10;22.30;;;9.30;1.00;;;;;;5035902;28;20602;-63
2021/03/26 00:05:38;;;;;;;37.92;21.42;;;9.20;1.00;;;;;;5035850;28;20279;-63
2021/03/26 00:08:05;;;;;;;35.83;21.55;;;9.30;1.00;;;;;;5036160;28;20201;-63
2021/03/26 00:10:31;;;;;;;39.90;23.73;;;9.30;1.00;;;;;;5035993;28;20177;-63
2021/03/26 00:12:57;;;;;;;40.50;24.20;;;9.40;1.00;;;;;;5035936;28;20185;-63
2021/03/26 00:15:23;;;;;;;43.43;22.70;;;9.20;1.00;;;;;;5035536;28;20505;-62
2021/03/26 00:17:49;;;;;;;36.33;21.67;;;9.20;1.00;;;;;;5035819;28;20431;-63
2021/03/26 00:20:15;;;;;;;40.27;22.97;;;9.30;1.00;;;;;;5035843;28;20355;-63
2021/03/26 00:22:41;;;;;;;33.10;20.92;;;9.10;1.00;;;;;;5035869;28;20196;-62
2021/03/26 00:25:08;;;;;;;38.23;22.33;;;9.10;1.00;;;;;;5034562;28;20185;-62
2021/03/26 00:27:34;;;;;;;40.15;22.40;;;9.10;1.00;;;;;;5034548;28;20192;-62
2021/03/26 00:30:00;;;;;;;38.40;22.98;;;9.00;1.00;;;;;;5035695;28;20256;-62
2021/03/26 00:32:26;;;;;;;40.27;23.17;;;9.00;1.00;;;;;;5034458;28;20557;-63
2021/03/26 00:34:54;;;;;;;38.10;21.50;;;8.90;1.00;;;;;;5035485;28;20192;-65
2021/03/26 00:37:20;;;;;;;34.63;21.05;;;8.80;1.00;;;;;;5032512;28;20280;-64
2021/03/26 00:39:46;;;;;;;31.83;20.25;;;8.80;1.00;;;;;;5015310;28;20476;-64
2021/03/26 00:42:12;;;;;;;32.72;20.38;;;8.70;1.00;;;;;;5015498;28;20260;-66
2021/03/26 00:44:37;;;;;;;35.17;19.53;;;8.80;1.00;;;;;;5015409;28;20481;-66
2021/03/26 00:47:03;;;;;;;73.23;34.30;;;8.80;1.00;;;;;;5015366;28;20187;-65
2021/03/26 00:49:29;;;;;;;112.22;59.67;;;8.80;1.00;;;;;;5015485;28;20189;-64
2021/03/26 00:51:55;;;;;;;35.83;21.80;;;8.80;1.00;;;;;;5015580;28;20181;-64
2021/03/26 00:54:20;;;;;;;42.23;22.77;;;8.80;1.00;;;;;;5015230;28;20645;-66
2021/03/26 00:56:46;;;;;;;34.07;21.27;;;8.80;1.00;;;;;;5015149;28;20190;-64
2021/03/26 00:59:12;;;;;;;41.80;24.33;;;8.70;1.00;;;;;;5015252;28;20524;-64
2021/03/26 01:01:38;;;;;;;31.27;19.83;;;8.70;1.00;;;;;;5015230;28;20183;-64
2021/03/26 01:04:04;;;;;;;40.83;21.00;;;8.60;1.00;;;;;;5015089;28;20267;-64
2021/03/26 01:06:30;;;;;;;38.78;22.15;;;8.60;1.00;;;;;;5015026;28;20248;-62
2021/03/26 01:08:55;;;;;;;38.70;22.53;;;8.60;1.00;;;;;;5015189;28;20566;-62
2021/03/26 01:11:26;;;;;;;33.47;20.50;;;8.50;1.00;;;;;;5013913;28;20250;-62
2021/03/26 01:13:52;;;;;;;37.10;23.25;;;8.40;1.00;;;;;;5014918;28;20173;-62
2021/03/26 01:16:19;;;;;;;31.77;20.83;;;8.40;1.00;;;;;;5015139;28;20251;-62
2021/03/26 01:18:46;;;;;;;34.53;22.08;;;8.40;1.00;;;;;;5015038;28;20820;-62
2021/03/26 01:21:18;;;;;;;34.83;20.80;;;8.30;1.00;;;;;;5014929;28;20247;-62
2021/03/26 01:23:44;;;;;;;36.35;20.77;;;8.30;1.00;;;;;;5014623;28;20255;-62
2021/03/26 01:26:10;;;;;;;32.30;20.47;;;8.20;1.00;;;;;;5014861;28;20629;-62
2021/03/26 01:28:35;;;;;;;39.90;21.20;;;8.10;1.00;;;;;;5014007;28;20458;-62
2021/03/26 01:31:01;;;;;;;38.80;21.97;;;8.10;3.00;;;;;;5014658;28;20714;-62
2021/03/26 01:33:28;;;;;;;36.95;21.08;;;8.10;14.70;;;;;;5014369;28;20443;-62
2021/03/26 01:35:54;;;;;;;38.80;21.98;;;8.00;18.20;;;;;;5014727;28;20185;-62
2021/03/26 01:38:19;;;;;;;35.13;20.40;;;8.00;26.00;;;;;;5014211;28;20194;-63
2021/03/26 01:40:49;;;;;;;37.00;22.17;;;7.90;30.30;;;;;;5014504;28;20275;-63
2021/03/26 01:43:22;;;;;;;39.13;22.15;;;7.90;41.30;;;;;;5014346;28;20894;-62
2021/03/26 01:45:49;;;;;;;34.72;20.15;;;7.80;40.10;;;;;;5014879;28;20501;-62
2021/03/26 01:48:29;;;;;;;36.13;21.20;;;7.80;46.30;;;;;;5014431;28;20261;-64
2021/03/26 01:50:56;;;;;;;35.45;21.25;;;7.80;58.20;;;;;;5014241;28;20560;-64
2021/03/26 01:53:24;;;;;;;33.35;20.00;;;7.80;46.20;;;;;;5014023;28;20197;-64
2021/03/26 01:55:50;;;;;;;37.08;22.45;;;7.70;49.80;;;;;;5014309;28;20194;-64
2021/03/26 01:58:27;;;;;;;39.97;22.35;;;7.70;48.90;;;;;;5014095;28;20527;-64
2021/03/26 02:01:14;;;;;;;39.08;21.15;;;7.70;55.60;;;;;;5014285;28;20205;-64
2021/03/26 02:03:43;;;;;;;42.47;22.45;;;7.70;65.00;;;;;;5012891;28;20181;-64
2021/03/26 02:06:30;;;;;;;41.72;20.85;;;7.70;80.80;;;;;;5014287;28;20252;-64
2021/03/26 02:09:08;;;;;;;36.50;21.20;;;7.60;83.30;;;;;;5013949;28;20196;-64
2021/03/26 02:11:52;;;;;;;30.45;20.42;;;7.50;89.10;;;;;;5013975;28;20193;-64
2021/03/26 02:14:21;;;;;;;35.65;21.08;;;7.50;99.90;;;;;;5013757;28;20185;-64
2021/03/26 02:16:47;;;;;;;37.63;20.27;;;7.40;99.90;;;;;;5013945;28;20185;-64
2021/03/26 02:19:43;;;;;;;36.70;20.88;;;7.50;99.90;;;;;;5013751;28;20193;-64
2021/03/26 02:22:12;;;;;;;34.97;21.20;;;7.50;99.90;;;;;;5013768;28;20209;-64
2021/03/26 02:24:40;;;;;;;38.83;21.75;;;7.50;99.90;;;;;;5014066;28;20202;-64
2021/03/26 02:27:27;;;;;;;40.97;21.73;;;7.40;99.90;;;;;;5014115;28;20264;-64
2021/03/26 02:29:53;;;;;;;40.42;23.20;;;7.40;99.90;;;;;;5013773;28;20182;-64
2021/03/26 02:32:32;;;;;;;43.33;23.40;;;7.40;99.90;;;;;;5013789;28;20193;-64
2021/03/26 02:35:16;;;;;;;37.65;21.45;;;7.40;99.90;;;;;;5013372;28;20468;-64
2021/03/26 02:37:56;;;;;;;37.75;23.58;;;7.40;99.90;;;;;;5013730;28;20223;-64
2021/03/26 02:41:11;;;;;;;40.10;21.88;;;7.40;99.90;;;;;;5012678;28;20220;-64
2021/03/26 02:43:49;;;;;;;40.10;24.17;;;7.30;99.90;;;;;;5017070;28;20205;-64
2021/03/26 02:46:17;;;;;;;38.33;21.73;;;7.20;99.90;;;;;;5013677;28;20610;-64
2021/03/26 02:48:47;;;;;;;44.35;24.02;;;7.10;99.90;;;;;;5013561;28;20213;-64
2021/03/26 02:51:25;;;;;;;39.70;21.67;;;7.10;99.90;;;;;;5017577;28;20232;-64
2021/03/26 02:54:07;;;;;;;41.67;24.00;;;7.00;99.90;;;;;;5017715;28;20193;-64
2021/03/26 02:56:43;;;;;;;39.92;23.60;;;7.00;99.90;;;;;;5017552;28;20192;-64
2021/03/26 02:59:14;;;;;;;47.15;25.17;;;6.90;99.90;;;;;;5017483;28;20181;-64
2021/03/26 03:01:49;;;;;;;44.72;23.95;;;6.90;99.90;;;;;;5017458;28;20194;-64
2021/03/26 03:04:32;;;;;;;43.38;24.17;;;6.90;99.90;;;;;;5017335;28;20180;-64
2021/03/26 03:07:27;;;;;;;37.80;22.98;;;7.00;99.90;;;;;;5017717;28;20573;-64
2021/03/26 03:09:59;;;;;;;45.70;24.98;;;7.00;99.90;;;;;;5017416;28;20226;-64
2021/03/26 03:12:37;;;;;;;39.05;24.05;;;7.00;99.90;;;;;;5017374;28;20293;-64
2021/03/26 03:15:03;;;;;;;41.85;23.15;;;6.90;99.90;;;;;;5017066;28;20284;-64
2021/03/26 03:17:42;;;;;;;47.20;24.00;;;7.00;99.90;;;;;;5017321;28;20264;-64
2021/03/26 03:20:15;;;;;;;50.00;26.90;;;7.00;99.90;;;;;;5017108;28;20232;-64
2021/03/26 03:22:53;;;;;;;49.80;26.60;;;6.90;99.90;;;;;;5017026;28;20542;-64
2021/03/26 03:25:23;;;;;;;52.67;29.35;;;6.90;99.90;;;;;;5017130;28;20209;-64
2021/03/26 03:28:20;;;;;;;51.78;25.33;;;6.80;99.90;;;;;;5017161;28;20261;-64
2021/03/26 03:31:01;;;;;;;47.42;26.20;;;6.70;99.90;;;;;;5017035;28;20264;-64
2021/03/26 03:33:34;;;;;;;52.17;27.88;;;6.70;99.90;;;;;;5016870;28;20189;-64
2021/03/26 03:36:03;;;;;;;55.00;26.75;;;6.70;99.90;;;;;;5017144;28;20190;-64
2021/03/26 03:38:32;;;;;;;52.33;26.48;;;6.80;99.90;;;;;;5016766;28;20211;-64
2021/03/26 03:41:14;;;;;;;53.03;27.15;;;6.80;99.90;;;;;;5016736;28;20232;-64
2021/03/26 03:44:01;;;;;;;56.63;29.02;;;6.80;99.90;;;;;;5016417;28;20235;-64
2021/03/26 03:46:33;;;;;;;50.97;27.38;;;6.80;99.90;;;;;;5016822;28;20198;-64
2021/03/26 03:49:20;;;;;;;51.85;27.90;;;6.80;99.90;;;;;;5016623;28;20268;-64
2021/03/26 03:52:06;;;;;;;54.95;28.70;;;6.70;99.90;;;;;;5016521;28;20642;-64
2021/03/26 03:54:36;;;;;;;60.92;27.42;;;6.70;99.90;;;;;;5016332;28;20197;-64
2021/03/26 03:57:13;;;;;;;56.92;29.42;;;6.80;99.90;;;;;;5016476;28;20184;-64
2021/03/26 03:59:50;;;;;;;58.08;30.80;;;6.70;99.90;;;;;;5016474;28;20205;-64
2021/03/26 04:02:23;;;;;;;58.60;28.98;;;6.80;99.90;;;;;;5016292;28;20328;-64
2021/03/26 04:04:59;;;;;;;50.30;28.48;;;6.80;99.90;;;;;;5016174;28;20615;-65
2021/03/26 04:07:36;;;;;;;55.00;27.10;;;6.70;99.90;;;;;;5016221;28;20284;-65
2021/03/26 04:10:11;;;;;;;55.92;28.08;;;6.70;99.90;;;;;;5016386;28;20544;-65
2021/03/26 04:12:39;;;;;;;56.40;28.23;;;6.70;99.90;;;;;;5016103;28;20176;-65
2021/03/26 04:15:10;;;;;;;55.60;30.88;;;6.60;99.90;;;;;;5015929;28;20529;-65
2021/03/26 04:17:46;;;;;;;57.08;28.55;;;6.60;99.90;;;;;;5016172;28;20182;-65
2021/03/26 04:20:23;;;;;;;57.92;29.23;;;6.60;99.90;;;;;;5016166;28;20217;-65
2021/03/26 04:22:54;;;;;;;54.55;27.02;;;6.70;99.90;;;;;;5016152;28;20454;-65
2021/03/26 04:25:33;;;;;;;54.28;28.90;;;6.60;99.90;;;;;;5016068;28;20170;-64
2021/03/26 04:28:06;;;;;;;55.33;28.58;;;6.70;99.90;;;;;;5016059;28;20256;-64
2021/03/26 04:31:02;;;;;;;53.15;28.35;;;6.80;99.90;;;;;;5015626;28;20182;-64
2021/03/26 04:33:28;;;;;;;58.60;27.23;;;6.70;99.90;;;;;;5015542;28;20198;-64
2021/03/26 04:35:56;;;;;;;53.57;26.67;;;6.70;99.90;;;;;;5015823;28;20517;-64
2021/03/26 04:38:33;;;;;;;61.17;29.80;;;6.70;99.90;;;;;;5016011;28;20185;-64
2021/03/26 04:41:07;;;;;;;58.05;27.92;;;6.60;99.90;;;;;;5015695;28;20221;-64
2021/03/26 04:43:46;;;;;;;51.28;29.85;;;6.70;99.90;;;;;;5015744;28;20176;-64
2021/03/26 04:46:30;;;;;;;59.70;29.23;;;6.70;99.90;;;;;;5015444;28;20550;-62
2021/03/26 04:49:26;;;;;;;60.72;28.15;;;6.70;99.90;;;;;;5015568;28;20176;-64
2021/03/26 04:52:04;;;;;;;62.97;29.95;;;6.70;99.90;;;;;;5017533;28;20200;-62
2021/03/26 04:54:44;;;;;;;62.47;29.90;;;6.80;99.90;;;;;;5015360;28;20178;-62
2021/03/26 04:57:35;;;;;;;64.30;30.20;;;6.90;99.90;;;;;;5015355;28;20656;-63
2021/03/26 05:00:07;;;;;;;57.70;28.88;;;7.00;99.90;;;;;;5015286;28;20580;-63
2021/03/26 05:02:33;;;;;;;57.53;29.80;;;7.00;99.90;;;;;;5015169;28;20564;-62
2021/03/26 05:05:00;;;;;;;54.00;27.88;;;7.10;99.90;;;;;;5015342;28;20492;-62
2021/03/26 05:07:34;;;;;;;49.80;28.15;;;7.20;99.90;;;;;;5015324;28;20534;-62
2021/03/26 05:10:06;;;;;;;52.10;29.13;;;7.30;99.90;;;;;;5014764;28;20208;-62
2021/03/26 05:12:35;;;;;;;53.33;25.73;;;7.50;99.90;;;;;;5014628;28;20213;-63
2021/03/26 05:15:06;;;;;;;59.55;27.77;;;7.50;99.90;;;;;;5015161;28;20201;-62
2021/03/26 05:18:01;;;;;;;54.08;27.02;;;7.60;99.90;;;;;;5015087;28;20200;-63
2021/03/26 05:20:48;;;;;;;53.10;27.52;;;7.40;99.90;;;;;;5014894;28;20282;-62
2021/03/26 05:23:22;;;;;;;56.45;29.70;;;7.50;99.90;;;;;;5014912;28;20181;-62
2021/03/26 05:25:50;;;;;;;57.88;27.77;;;7.60;99.90;;;;;;5014990;28;20182;-62
2021/03/26 05:28:21;;;;;;;58.22;30.05;;;7.80;99.90;;;;;;5014799;28;20182;-62
2021/03/26 05:30:47;;;;;;;50.55;27.65;;;7.80;99.90;;;;;;5014829;28;20182;-62
2021/03/26 05:33:39;;;;;;;45.05;24.73;;;8.00;99.90;;;;;;5014509;28;20281;-62
2021/03/26 05:36:22;;;;;;;58.20;28.33;;;7.90;99.90;;;;;;5014947;28;20183;-62
2021/03/26 05:39:11;;;;;;;50.33;27.67;;;7.90;99.90;;;;;;5014811;28;20221;-62
2021/03/26 05:41:52;;;;;;;56.03;26.27;;;8.00;99.90;;;;;;5014597;28;20564;-62
2021/03/26 05:44:40;;;;;;;55.03;28.42;;;7.90;91.00;;;;;;5014527;28;20175;-62
2021/03/26 05:47:08;;;;;;;48.40;25.95;;;7.90;99.80;;;;;;5014657;28;20615;-62
2021/03/26 05:49:37;;;;;;;54.78;27.25;;;7.90;99.90;;;;;;5014570;28;20179;-62
2021/03/26 05:52:08;;;;;;;50.75;27.00;;;7.90;99.90;;;;;;5014347;28;20192;-63
2021/03/26 05:55:00;;;;;;;52.38;28.02;;;8.10;99.90;;;;;;5014353;28;20283;-63
2021/03/26 05:57:36;;;;;;;42.08;25.40;;;8.20;96.50;;;;;;5014439;28;20179;-62
2021/03/26 06:00:26;;;;;;;50.53;28.00;;;8.40;94.20;;;;;;5014307;28;20220;-62
2021/03/26 06:03:10;;;;;;;44.90;25.40;;;8.60;62.40;;;;;;5014346;28;20224;-63
2021/03/26 06:06:14;;;;;;;45.00;25.20;;;8.90;1.00;;;;;;5014304;28;20171;-62
2021/03/26 06:09:04;;;;;;;45.85;25.48;;;9.20;1.00;;;;;;5020891;28;20194;-62
2021/03/26 06:11:54;;;;;;;51.83;28.63;;;9.80;1.00;;;;;;5014196;28;20456;-62
2021/03/26 06:14:39;;;;;;;50.72;26.60;;;10.10;99.90;;;;;;5013858;28;20220;-62
2021/03/26 06:17:21;;;;;;;44.65;26.38;;;10.30;1.00;;;;;;5014012;28;20611;-63
2021/03/26 06:20:25;;;;;;;48.63;27.08;;;10.90;99.90;;;;;;5014093;28;20251;-62
2021/03/26 06:23:21;;;;;;;40.80;23.92;;;11.10;1.00;;;;;;5014042;28;20608;-62
2021/03/26 06:26:12;;;;;;;41.72;27.23;;;11.40;1.00;;;;;;5013571;28;20186;-62
2021/03/26 06:28:56;;;;;;;39.50;24.27;;;11.80;27.10;;;;;;5014125;28;20241;-63
2021/03/26 06:31:27;;;;;;;43.38;25.45;;;12.00;99.90;;;;;;5013847;28;20524;-63
2021/03/26 06:34:14;;;;;;;48.15;26.95;;;12.10;1.00;;;;;;5013564;28;20178;-65
2021/03/26 06:36:57;;;;;;;43.10;25.85;;;11.80;5.80;;;;;;5013802;28;20192;-65
2021/03/26 06:39:52;;;;;;;43.70;27.85;;;11.70;1.00;;;;;;5013659;28;20274;-65
2021/03/26 06:42:45;;;;;;;44.33;28.38;;;11.70;99.90;;;;;;5022132;28;20642;-65
2021/03/26 06:45:51;;;;;;;44.92;27.30;;;12.10;99.90;;;;;;5013572;28;20189;-64
2021/03/26 06:48:35;;;;;;;43.50;25.98;;;12.30;1.00;;;;;;5013686;28;20608;-66
2021/03/26 06:51:32;;;;;;;43.00;26.55;;;12.10;1.00;;;;;;5012744;28;20292;-65
2021/03/26 06:54:22;;;;;;;43.78;26.02;;;11.80;1.00;;;;;;5013435;28;20641;-65
2021/03/26 06:57:12;;;;;;;46.00;26.15;;;11.50;99.90;;;;;;5013921;28;20596;-68
2021/03/26 06:59:56;;;;;;;38.22;24.73;;;10.90;99.90;;;;;;5013650;28;20342;-65
2021/03/26 07:02:46;;;;;;;40.03;26.35;;;10.80;1.00;;;;;;5013603;28;20208;-64
2021/03/26 07:05:49;;;;;;;39.85;25.05;;;10.90;99.90;;;;;;5013354;28;20198;-64
2021/03/26 07:08:36;;;;;;;41.00;24.80;;;11.00;1.00;;;;;;5013395;28;20240;-63
2021/03/26 07:11:08;;;;;;;43.83;27.30;;;11.20;1.00;;;;;;5013504;28;20225;-65
2021/03/26 07:14:09;;;;;;;50.55;30.92;;;11.10;1.00;;;;;;5013282;28;20191;-64
2021/03/26 07:16:54;;;;;;;41.50;26.85;;;11.20;1.00;;;;;;5013329;28;20220;-63
2021/03/26 07:20:00;;;;;;;45.75;27.98;;;10.90;1.00;;;;;;5013331;28;20278;-63
2021/03/26 07:22:56;;;;;;;49.53;30.45;;;10.80;1.00;;;;;;5012937;28;20622;-65
2021/03/26 07:25:29;;;;;;;51.25;30.98;;;10.80;1.00;;;;;;5013244;28;20183;-64
2021/03/26 07:28:42;;;;;;;43.58;26.52;;;10.80;1.00;;;;;;5013677;28;20488;-63
2021/03/26 07:31:25;;;;;;;43.38;26.92;;;10.80;1.00;;;;;;5047369;28;20367;-63
2021/03/26 07:33:56;;;;;;;46.53;29.50;;;10.80;1.00;;;;;;5059009;28;20185;-64
2021/03/26 07:36:41;;;;;;;47.65;27.15;;;10.80;28.90;;;;;;5049568;28;20202;-64
2021/03/26 07:39:28;;;;;;;44.80;28.27;;;10.70;99.90;;;;;;5036709;28;20178;-63
2021/03/26 07:42:27;;;;;;;47.47;30.73;;;10.80;99.90;;;;;;5036264;28;20300;-64
2021/03/26 07:45:19;;;;;;;44.55;27.00;;;10.90;99.90;;;;;;5035896;28;20268;-64
2021/03/26 07:47:57;;;;;;;43.47;28.00;;;11.10;1.00;;;;;;5036492;28;20204;-62
2021/03/26 07:50:47;;;;;;;48.20;27.48;;;11.00;1.00;;;;;;5028470;28;20573;-63
2021/03/26 07:53:53;;;;;;;44.03;27.33;;;11.20;1.00;;;;;;5035068;28;20189;-63
2021/03/26 07:56:46;;;;;;;39.03;28.15;;;11.40;1.00;;;;;;5036338;28;20485;-63
2021/03/26 07:59:38;;;;;;;44.25;26.75;;;11.60;99.90;;;;;;5036123;28;20578;-64
2021/03/26 08:02:17;;;;;;;41.30;27.95;;;11.60;1.00;;;;;;5035371;28;20216;-64
2021/03/26 08:05:21;;;;;;;46.22;25.92;;;11.70;1.00;;;;;;5035654;28;20213;-64
2021/03/26 08:08:13;;;;;;;42.72;29.02;;;11.60;1.00;;;;;;5035230;28;20258;-65
2021/03/26 08:10:55;;;;;;;45.03;27.50;;;11.70;99.90;;;;;;5035497;28;20190;-62
2021/03/26 08:13:44;;;;;;;41.63;26.95;;;11.80;1.00;;;;;;5035867;28;20260;-64
2021/03/26 08:16:27;;;;;;;40.53;26.38;;;11.80;99.90;;;;;;5036507;28;20271;-63
2021/03/26 08:19:14;;;;;;;38.95;25.55;;;11.80;1.00;;;;;;5036100;28;20183;-62
2021/03/26 08:22:13;;;;;;;38.67;25.98;;;11.90;1.00;;;;;;5036534;28;20228;-62
2021/03/26 08:25:09;;;;;;;37.22;24.70;;;12.30;1.00;;;;;;5035884;28;20210;-63
2021/03/26 08:27:54;;;;;;;35.55;23.70;;;12.70;38.00;;;;;;5036240;28;20300;-63
2021/03/26 08:30:31;;;;;;;37.47;25.23;;;13.00;1.00;;;;;;5033306;28;20277;-62
2021/03/26 08:33:24;;;;;;;51.78;33.60;;;13.20;99.90;;;;;;5029346;28;20182;-62
2021/03/26 08:36:22;;;;;;;36.15;23.73;;;13.30;1.00;;;;;;5033035;28;20191;-67
2021/03/26 08:39:15;;;;;;;31.95;22.98;;;13.40;1.00;;;;;;5031543;28;20198;-65
2021/03/26 08:41:46;;;;;;;39.28;24.25;;;13.60;1.00;;;;;;5032967;28;20603;-64
2021/03/26 08:44:17;;;;;;;35.15;23.23;;;13.70;1.00;;;;;;5033524;28;20198;-67
2021/03/26 08:46:52;;;;;;;33.72;22.73;;;13.90;99.90;;;;;;5034443;28;20188;-66
2021/03/26 08:49:23;;;;;;;34.03;23.33;;;14.00;99.90;;;;;;5027587;28;20202;-65
2021/03/26 08:51:55;;;;;;;34.35;21.80;;;13.90;99.90;;;;;;5034373;28;20196;-64
2021/03/26 08:54:49;;;;;;;30.25;22.33;;;13.90;99.90;;;;;;5034869;28;20184;-64
2021/03/26 08:57:42;;;;;;;32.10;23.10;;;13.90;99.90;;;;;;5034752;28;20179;-64
2021/03/26 09:00:15;;;;;;;27.40;19.63;;;13.80;99.90;;;;;;5035036;28;20259;-66
2021/03/26 09:03:25;;;;;;;26.30;18.65;;;13.80;63.70;;;;;;5035022;28;20191;-63
2021/03/26 09:06:00;;;;;;;30.75;20.15;;;13.60;20.40;;;;;;5032240;28;20188;-63
2021/03/26 09:08:43;;;;;;;28.45;19.58;;;13.90;66.50;;;;;;5034573;28;20184;-66
2021/03/26 09:11:37;;;;;;;25.58;18.63;;;14.00;1.00;;;;;;5034771;28;20189;-62
2021/03/26 09:14:29;;;;;;;26.75;17.85;;;14.20;1.00;;;;;;5032992;28;20203;-62
2021/03/26 09:17:05;;;;;;;25.00;17.00;;;14.40;1.00;;;;;;5034929;28;20199;-62
2021/03/26 09:19:48;;;;;;;22.88;16.90;;;14.40;99.90;;;;;;5034820;28;20641;-63
2021/03/26 09:22:59;;;;;;;24.45;15.68;;;14.40;99.90;;;;;;5033739;28;20273;-66
2021/03/26 09:25:52;;;;;;;23.60;15.57;;;14.20;99.90;;;;;;5036885;28;20203;-63
2021/03/26 09:28:38;;;;;;;21.33;15.52;;;14.30;99.90;;;;;;5020609;28;20245;-64
2021/03/26 09:31:24;;;;;;;20.40;14.10;;;14.40;99.90;;;;;;5054716;28;20190;-64
2021/03/26 09:33:58;;;;;;;22.95;15.75;;;14.40;99.90;;;;;;5040500;28;20230;-65
2021/03/26 09:36:32;;;;;;;22.50;13.45;;;14.40;99.90;;;;;;5034424;28;20495;-63
2021/03/26 09:39:07;;;;;;;17.02;14.15;;;14.50;99.90;;;;;;5034175;28;20652;-67
2021/03/26 09:41:49;;;;;;;19.60;15.30;;;14.80;99.90;;;;;;5034176;28;20224;-67
2021/03/26 09:44:43;;;;;;;16.60;13.73;;;15.10;99.90;;;;;;5034094;28;20193;-65
2021/03/26 09:47:31;;;;;;;20.50;12.45;;;15.00;94.20;;;;;;5033476;28;20423;-66
2021/03/26 09:50:06;;;;;;;19.13;12.82;;;14.90;40.10;;;;;;5027459;28;20188;-65
2021/03/26 09:52:43;;;;;;;19.55;12.93;;;15.20;45.80;;;;;;5034027;28;20398;-64
2021/03/26 09:55:08;;;;;;;14.68;10.02;;;15.30;1.00;;;;;;5030036;28;20211;-65
2021/03/26 09:58:04;;;;;;;13.40;11.03;;;15.30;1.00;;;;;;5033492;28;20630;-65
2021/03/26 10:01:08;;;;;;;12.65;11.35;;;14.90;1.00;;;;;;5028649;28;20229;-65
2021/03/26 10:04:04;;;;;;;18.13;11.95;;;15.00;1.00;;;;;;5038353;28;20189;-64
2021/03/26 10:06:48;;;;;;;16.35;11.70;;;15.10;1.00;;;;;;5018174;28;20291;-66
2021/03/26 10:12:10;;;;;;;14.38;11.27;;;14.90;1.00;;;;;;5034458;28;20179;-65
2021/03/26 10:14:43;;;;;;;15.35;11.48;;;15.10;1.00;;;;;;5034087;28;20192;-65
2021/03/26 10:17:11;;;;;;;18.13;10.00;;;15.10;1.00;;;;;;5033872;28;20200;-65
2021/03/26 10:19:50;;;;;;;19.73;10.43;;;15.10;1.00;;;;;;5034212;28;20185;-66
2021/03/26 10:22:47;;;;;;;14.50;10.63;;;15.30;1.00;;;;;;5034055;28;20173;-66
2021/03/26 10:25:41;;;;;;;13.80;9.90;;;15.20;1.00;;;;;;5033610;28;20184;-66
2021/03/26 10:28:33;;;;;;;17.15;10.88;;;15.00;1.00;;;;;;5034251;28;20184;-65
2021/03/26 10:31:11;;;;;;;15.20;11.27;;;15.30;1.00;;;;;;5032885;28;20293;-64
2021/03/26 10:33:56;;;;;;;15.65;10.32;;;15.40;1.00;;;;;;5033632;28;20212;-67
2021/03/26 10:36:51;;;;;;;11.87;9.20;;;15.70;1.00;;;;;;5034029;28;20185;-68
2021/03/26 10:39:41;;;;;;;12.30;9.30;;;15.70;1.00;;;;;;5033812;28;20897;-66
2021/03/26 10:42:07;;;;;;;15.93;11.38;;;15.70;1.00;;;;;;5034059;28;20505;-67
2021/03/26 10:44:39;;;;;;;13.67;11.77;;;15.70;1.00;;;;;;5033545;28;20190;-66
2021/03/26 10:47:12;;;;;;;15.75;12.00;;;15.80;1.00;;;;;;5034012;28;20182;-66
2021/03/26 10:49:55;;;;;;;12.45;9.85;;;15.90;1.00;;;;;;5033874;28;20193;-67
2021/03/26 10:52:38;;;;;;;17.97;10.43;;;16.10;1.00;;;;;;5033756;28;20237;-68
2021/03/26 10:55:11;;;;;;;16.10;10.57;;;16.30;1.00;;;;;;5033558;28;20442;-65
2021/03/26 10:57:43;;;;;;;14.87;12.00;;;16.50;1.00;;;;;;5033851;28;20430;-65
2021/03/26 11:00:38;;;;;;;15.57;9.63;;;16.70;1.00;;;;;;5033431;28;20478;-65
2021/03/26 11:03:07;;;;;;;12.67;10.47;;;16.50;1.00;;;;;;5033347;28;21042;-66
2021/03/26 11:05:36;;;;;;;15.00;10.40;;;16.60;1.00;;;;;;5032611;28;20420;-67
2021/03/26 11:08:01;;;;;;;20.07;12.73;;;16.60;1.00;;;;;;5033440;28;20901;-67
2021/03/26 11:10:53;;;;;;;15.53;10.13;;;16.70;1.00;;;;;;5034344;28;20455;-67
2021/03/26 11:13:37;;;;;;;13.30;10.10;;;16.90;1.00;;;;;;5037467;28;20181;-67
2021/03/26 11:16:22;;;;;;;15.30;10.17;;;17.20;1.00;;;;;;5035147;28;20432;-68
2021/03/26 11:19:00;;;;;;;14.03;9.10;;;17.00;1.00;;;;;;5037285;28;20432;-68
2021/03/26 11:21:42;;;;;;;9.87;7.90;;;17.00;1.00;;;;;;5037358;28;20497;-68
2021/03/26 11:24:09;;;;;;;11.17;8.53;;;17.00;1.00;;;;;;5037047;28;20439;-67
2021/03/26 11:26:46;;;;;;;13.87;9.67;;;16.90;1.00;;;;;;5037177;28;20851;-67
2021/03/26 11:29:40;;;;;;;16.60;11.10;;;17.00;1.00;;;;;;5021273;28;20437;-66
2021/03/26 11:32:26;;;;;;;14.00;9.20;;;17.20;1.00;;;;;;5015325;28;20429;-65
2021/03/26 11:35:02;;;;;;;13.67;9.50;;;17.40;1.00;;;;;;5017157;28;20429;-66
2021/03/26 11:37:45;;;;;;;17.50;10.00;;;17.40;1.00;;;;;;5017350;28;20528;-66
2021/03/26 11:40:27;;;;;;;15.13;9.90;;;17.70;1.00;;;;;;5017433;28;20941;-67
2021/03/26 11:43:10;;;;;;;12.20;9.30;;;17.80;1.00;;;;;;5017508;28;20471;-66
2021/03/26 11:45:44;;;;;;;10.90;8.60;;;18.20;1.00;;;;;;5017040;28;20418;-68
2021/03/26 11:48:25;;;;;;;13.00;8.90;;;17.90;1.00;;;;;;5037018;28;20424;-67
2021/03/26 11:50:50;;;;;;;15.20;9.90;;;17.70;1.00;;;;;;5037163;28;20424;-65
2021/03/26 11:53:57;;;;;;;11.00;8.70;;;17.90;1.00;;;;;;5036480;28;20495;-65
2021/03/26 11:56:40;;;;;;;8.33;6.67;;;18.30;1.00;;;;;;5036803;28;20185;-69
2021/03/26 11:59:16;;;;;;;11.27;8.50;;;18.00;1.00;;;;;;5037369;28;20981;-67
2021/03/26 12:02:08;;;;;;;12.20;9.17;;;18.40;1.00;;;;;;5036810;28;20463;-69
2021/03/26 12:05:18;;;;;;;11.20;9.23;;;18.10;1.00;;;;;;5036806;28;20452;-67
2021/03/26 12:07:58;;;;;;;10.73;8.67;;;17.40;1.00;;;;;;5030068;28;20839;-68
2021/03/26 12:10:42;;;;;;;12.37;9.87;;;17.50;1.00;;;;;;5036677;28;20482;-69
2021/03/26 12:13:26;;;;;;;11.13;8.50;;;17.30;1.00;;;;;;5035273;28;20460;-67
2021/03/26 12:16:33;;;;;;;10.73;7.53;;;17.20;1.00;;;;;;5035536;28;20519;-69
2021/03/26 12:19:01;;;;;;;13.57;9.03;;;17.10;1.00;;;;;;5035412;28;20940;-70
2021/03/26 12:21:44;;;;;;;9.37;8.40;;;17.40;1.00;;;;;;5035618;28;20777;-67
2021/03/26 12:24:36;;;;;;;10.93;8.93;;;17.60;1.00;;;;;;5036018;28;20507;-68
2021/03/26 12:27:07;;;;;;;13.53;9.63;;;17.80;1.00;;;;;;5036465;28;20425;-66
2021/03/26 12:29:44;;;;;;;11.77;9.50;;;17.50;1.00;;;;;;5035945;28;20409;-67
2021/03/26 12:32:20;;;;;;;14.97;9.90;;;17.50;1.00;;;;;;5036441;28;20424;-67
2021/03/26 12:34:51;;;;;;;13.80;11.20;;;17.50;1.00;;;;;;5036193;28;20424;-66
2021/03/26 12:37:58;;;;;;;11.13;8.83;;;17.30;1.00;;;;;;5035958;28;20467;-66
2021/03/26 12:40:41;;;;;;;15.30;11.83;;;17.60;1.00;;;;;;5034246;28;20472;-67
2021/03/26 12:43:22;;;;;;;16.33;11.60;;;17.30;1.00;;;;;;5035827;28;20420;-67
2021/03/26 12:46:04;;;;;;;26.00;19.73;;;17.30;1.00;;;;;;5036127;28;20425;-67
2021/03/26 12:48:43;;;;;;;20.33;13.90;;;17.30;1.00;;;;;;5036108;28;20427;-67
2021/03/26 12:51:27;;;;;;;16.40;13.30;;;17.40;1.00;;;;;;5036193;28;20452;-68
2021/03/26 12:54:08;;;;;;;17.53;13.10;;;17.50;1.00;;;;;;5035861;28;20452;-65
2021/03/26 12:56:58;;;;;;;16.83;12.63;;;17.50;1.00;;;;;;5035902;28;20410;-67
2021/03/26 12:59:25;;;;;;;15.70;12.47;;;17.50;1.00;;;;;;5036091;28;20420;-67
2021/03/26 13:02:14;;;;;;;18.00;13.07;;;17.80;1.00;;;;;;5036034;28;20567;-67
2021/03/26 13:05:18;;;;;;;17.30;13.33;;;17.70;1.00;;;;;;5035983;28;20420;-68
2021/03/26 13:07:47;;;;;;;18.00;13.47;;;18.10;1.00;;;;;;5031337;28;20513;-68
2021/03/26 13:10:29;;;;;;;16.43;13.10;;;18.20;1.00;;;;;;5031146;28;20447;-67
2021/03/26 13:13:17;;;;;;;17.20;13.23;;;18.20;1.00;;;;;;5036209;28;20427;-66
2021/03/26 13:16:11;;;;;;;18.07;13.50;;;18.20;1.00;;;;;;5030875;28;20737;-66
2021/03/26 13:18:53;;;;;;;18.73;14.20;;;18.10;1.00;;;;;;5018213;28;20462;-67
2021/03/26 13:21:39;;;;;;;20.20;15.37;;;17.90;1.00;;;;;;5027223;28;20563;-68
2021/03/26 13:24:37;;;;;;;16.17;13.13;;;17.60;1.00;;;;;;5034366;28;20454;-66
2021/03/26 13:27:21;;;;;;;16.43;13.40;;;17.60;1.00;;;;;;5034502;28;20417;-68
2021/03/26 13:30:09;;;;;;;18.93;12.70;;;17.70;1.00;;;;;;5034392;28;20420;-68
2021/03/26 13:32:59;;;;;;;20.37;14.23;;;17.90;1.00;;;;;;5034446;28;20440;-66
2021/03/26 13:35:31;;;;;;;17.80;12.40;;;17.70;1.00;;;;;;5031388;28;20441;-66
2021/03/26 13:38:01;;;;;;;18.57;13.17;;;17.40;1.00;;;;;;5027188;28;20443;-68
2021/03/26 13:40:29;;;;;;;19.80;13.40;;;17.50;1.00;;;;;;5033890;28;20484;-65
2021/03/26 13:42:58;;;;;;;17.73;13.20;;;17.50;1.00;;;;;;5034229;28;20420;-65
2021/03/26 13:45:25;;;;;;;23.00;14.47;;;17.60;1.00;;;;;;5033856;28;20494;-64